createdAt,value
2023-03-13T00:02:11.136Z,4.72
2023-03-13T00:04:37.577Z,5.22
2023-03-13T00:07:04.764Z,5.80
2023-03-13T00:09:31.106Z,4.68
2023-03-13T00:11:58.042Z,4.32
2023-03-13T00:14:24.395Z,4.50
2023-03-13T00:16:50.866Z,4.40
2023-03-13T00:19:17.261Z,4.50
2023-03-13T00:21:43.642Z,4.80
2023-03-13T00:24:11.096Z,4.55
2023-03-13T00:26:37.504Z,4.82
2023-03-13T00:29:03.890Z,5.03
2023-03-13T00:31:31.481Z,5.80
2023-03-13T00:33:59.750Z,4.15
2023-03-13T00:36:29.826Z,4.88
2023-03-13T00:38:56.650Z,4.53
2023-03-13T00:41:24.361Z,4.40
2023-03-13T00:43:51.280Z,5.07
2023-03-13T00:46:19.339Z,4.93
2023-03-13T00:48:46.279Z,5.30
2023-03-13T00:51:14.019Z,5.47
2023-03-13T00:53:41.648Z,5.75
2023-03-13T00:56:09.524Z,6.03
2023-03-13T00:58:36.944Z,5.32
2023-03-13T01:01:20.138Z,5.63
2023-03-13T01:03:51.414Z,6.53
2023-03-13T01:06:19.657Z,5.95
2023-03-13T01:08:46.090Z,4.95
2023-03-13T01:11:23.024Z,6.13
2023-03-13T01:13:53.328Z,5.95
2023-03-13T01:16:20.427Z,5.82
2023-03-13T01:18:51.506Z,5.65
2023-03-13T01:21:21.355Z,4.53
2023-03-13T01:23:48.800Z,5.10
2023-03-13T01:26:15.472Z,5.55
2023-03-13T01:28:42.106Z,5.30
2023-03-13T01:31:15.049Z,3.92
2023-03-13T01:33:42.070Z,5.75
2023-03-13T01:36:09.202Z,4.97
2023-03-13T01:38:36.072Z,4.82
2023-03-13T01:41:02.689Z,5.25
2023-03-13T01:46:00.890Z,4.28
2023-03-13T01:48:35.344Z,5.32
2023-03-13T01:51:03.781Z,4.40
2023-03-13T01:53:33.297Z,4.80
2023-03-13T01:56:00.966Z,5.13
2023-03-13T01:58:29.512Z,4.88
2023-03-13T02:00:56.602Z,4.78
2023-03-13T02:03:23.433Z,5.28
2023-03-13T02:05:50.648Z,5.60
2023-03-13T02:08:19.180Z,5.63
2023-03-13T02:10:50.517Z,5.97
2023-03-13T02:13:17.751Z,5.97
2023-03-13T02:15:44.743Z,5.88
2023-03-13T02:18:11.363Z,5.68
2023-03-13T02:20:39.658Z,6.75
2023-03-13T02:23:14.055Z,4.97
2023-03-13T02:25:46.184Z,7.22
2023-03-13T02:28:17.893Z,6.85
2023-03-13T02:30:45.177Z,8.00
2023-03-13T02:33:12.444Z,8.20
2023-03-13T02:35:39.060Z,7.53
2023-03-13T02:38:11.188Z,8.43
2023-03-13T02:40:39.417Z,7.43
2023-03-13T02:43:32.360Z,8.55
2023-03-13T02:46:07.483Z,8.23
2023-03-13T02:48:38.466Z,8.98
2023-03-13T02:51:06.241Z,9.18
2023-03-13T02:53:33.539Z,9.90
2023-03-13T02:56:00.138Z,11.23
2023-03-13T02:58:26.845Z,9.82
2023-03-13T03:00:53.490Z,11.73
2023-03-13T03:03:21.101Z,11.65
2023-03-13T03:05:47.521Z,10.35
2023-03-13T03:08:13.929Z,10.60
2023-03-13T03:10:40.287Z,11.95
2023-03-13T03:13:06.842Z,11.27
2023-03-13T03:15:33.220Z,10.07
2023-03-13T03:17:59.645Z,10.27
2023-03-13T03:20:26.610Z,7.25
2023-03-13T03:22:53.006Z,12.25
2023-03-13T03:25:20.396Z,10.88
2023-03-13T03:27:47.381Z,9.90
2023-03-13T03:30:14.551Z,7.60
2023-03-13T03:32:41.539Z,11.75
2023-03-13T03:35:08.009Z,11.13
2023-03-13T03:37:34.604Z,11.63
2023-03-13T03:40:02.242Z,12.20
2023-03-13T03:42:30.647Z,12.63
2023-03-13T03:44:57.440Z,11.55
2023-03-13T03:47:23.976Z,11.88
2023-03-13T03:49:50.465Z,9.77
2023-03-13T03:52:17.284Z,12.13
2023-03-13T03:54:44.028Z,12.02
2023-03-13T03:57:11.012Z,11.75
2023-03-13T03:59:39.032Z,11.27
2023-03-13T04:02:07.855Z,9.60
2023-03-13T04:04:34.927Z,7.75
2023-03-13T04:07:06.314Z,10.43
2023-03-13T04:09:34.011Z,9.65
2023-03-13T04:12:02.362Z,9.27
2023-03-13T04:14:33.089Z,9.05
2023-03-13T04:17:02.247Z,6.07
2023-03-13T04:19:28.728Z,8.48
2023-03-13T04:21:55.109Z,8.40
2023-03-13T04:24:22.082Z,7.88
2023-03-13T04:26:48.498Z,8.55
2023-03-13T04:29:15.290Z,6.95
2023-03-13T04:31:59.991Z,7.68
2023-03-13T04:34:35.235Z,8.25
2023-03-13T04:37:15.957Z,7.93
2023-03-13T04:39:55.212Z,7.63
2023-03-13T04:42:47.140Z,7.05
2023-03-13T04:45:24.201Z,7.40
2023-03-13T04:48:01.748Z,6.22
2023-03-13T04:50:48.317Z,6.22
2023-03-13T04:53:20.782Z,6.60
2023-03-13T04:55:54.393Z,7.30
2023-03-13T04:58:39.281Z,6.43
2023-03-13T05:01:34.808Z,4.38
2023-03-13T05:04:23.031Z,5.47
2023-03-13T05:06:59.882Z,5.22
2023-03-13T05:09:43.652Z,5.80
2023-03-13T05:12:10.025Z,5.68
2023-03-13T05:15:02.301Z,5.13
2023-03-13T05:17:47.065Z,4.70
2023-03-13T05:20:25.315Z,4.38
2023-03-13T05:23:05.624Z,4.32
2023-03-13T05:25:45.007Z,4.72
2023-03-13T05:28:14.020Z,4.63
2023-03-13T05:30:44.566Z,4.28
2023-03-13T05:33:31.510Z,3.10
2023-03-13T05:36:11.431Z,4.15
2023-03-13T05:38:37.829Z,4.07
2023-03-13T05:41:22.611Z,3.17
2023-03-13T05:44:09.548Z,4.20
2023-03-13T05:46:55.468Z,3.90
2023-03-13T05:49:48.035Z,3.67
2023-03-13T05:52:43.496Z,3.55
2023-03-13T05:55:09.950Z,2.78
2023-03-13T05:57:59.362Z,3.75
2023-03-13T06:01:05.679Z,3.67
2023-03-13T06:03:50.800Z,3.30
2023-03-13T06:06:18.178Z,3.20
2023-03-13T06:08:53.537Z,3.17
2023-03-13T06:11:21.396Z,3.15
2023-03-13T06:13:47.954Z,3.35
2023-03-13T06:16:33.116Z,2.88
2023-03-13T06:19:17.797Z,3.45
2023-03-13T06:21:44.730Z,3.38
2023-03-13T06:24:11.043Z,3.17
2023-03-13T06:26:37.429Z,2.70
2023-03-13T06:29:03.778Z,3.22
2023-03-13T06:31:30.187Z,3.15
2023-03-13T06:33:56.628Z,3.15
2023-03-13T06:36:23.874Z,3.03
2023-03-13T06:38:50.429Z,3.33
2023-03-13T06:41:16.894Z,3.72
2023-03-13T06:43:43.395Z,3.28
2023-03-13T06:46:16.010Z,3.05
2023-03-13T06:48:42.407Z,3.40
2023-03-13T06:51:13.163Z,2.65
2023-03-13T06:53:39.888Z,2.35
2023-03-13T06:56:06.737Z,2.80
2023-03-13T06:58:33.392Z,2.88
2023-03-13T07:03:26.432Z,2.70
2023-03-13T07:10:48.481Z,2.60
2023-03-13T07:13:14.844Z,2.83
2023-03-13T07:15:41.505Z,2.80
2023-03-13T07:23:00.712Z,2.50
2023-03-13T07:25:27.069Z,3.30
2023-03-13T07:27:53.481Z,3.30
2023-03-13T07:30:20.174Z,3.28
2023-03-13T07:35:12.947Z,3.30
2023-03-13T07:37:39.287Z,2.95
2023-03-13T07:40:05.938Z,3.13
2023-03-13T07:52:18.046Z,3.20
2023-03-13T07:54:44.873Z,3.88
2023-03-13T07:57:11.211Z,4.43
2023-03-13T07:59:37.598Z,3.45
2023-03-13T08:02:04.078Z,3.38
2023-03-13T08:04:30.412Z,3.60
2023-03-13T08:06:56.812Z,2.72
2023-03-13T08:09:23.233Z,3.30
2023-03-13T08:11:49.622Z,3.72
2023-03-13T08:14:16.503Z,4.20
2023-03-13T08:16:43.033Z,3.20
2023-03-13T08:19:10.239Z,4.18
2023-03-13T08:21:37.489Z,4.25
2023-03-13T08:24:06.824Z,4.20
2023-03-13T08:26:34.271Z,4.20
2023-03-13T08:29:01.961Z,3.75
2023-03-13T08:31:47.931Z,3.53
2023-03-13T08:34:15.050Z,3.70
2023-03-13T08:36:41.544Z,3.20
2023-03-13T08:39:11.203Z,3.60
2023-03-13T08:41:37.612Z,3.30
2023-03-13T08:44:04.880Z,3.95
2023-03-13T08:46:32.172Z,3.50
2023-03-13T08:48:58.963Z,2.17
2023-03-13T08:51:27.235Z,2.72
2023-03-13T08:53:55.854Z,2.60
2023-03-13T08:56:23.574Z,2.60
2023-03-13T08:58:50.393Z,3.20
2023-03-13T09:01:16.936Z,2.42
2023-03-13T09:03:43.682Z,3.28
2023-03-13T09:06:10.734Z,1.98
2023-03-13T09:08:37.642Z,2.42
2023-03-13T09:11:05.563Z,1.92
2023-03-13T09:13:33.017Z,2.30
2023-03-13T09:16:00.728Z,2.10
2023-03-13T09:18:27.616Z,2.00
2023-03-13T09:20:54.202Z,2.38
2023-03-13T09:28:13.225Z,2.20
2023-03-13T09:30:39.694Z,2.15
2023-03-13T09:33:06.093Z,1.90
2023-03-13T09:35:32.443Z,1.77
2023-03-13T09:37:58.842Z,1.88
2023-03-13T09:40:26.216Z,1.35
2023-03-13T09:42:54.701Z,1.80
2023-03-13T09:45:40.330Z,1.63
2023-03-13T09:48:12.863Z,1.67
2023-03-13T09:50:44.711Z,1.73
2023-03-13T09:53:15.543Z,1.20
2023-03-13T09:55:44.850Z,1.10
2023-03-13T09:58:17.859Z,1.40
2023-03-13T10:00:51.361Z,1.55
2023-03-13T10:03:21.532Z,1.50
2023-03-13T10:05:49.728Z,1.40
2023-03-13T10:08:16.940Z,1.40
2023-03-13T10:10:45.283Z,1.33
2023-03-13T10:13:18.574Z,1.42
2023-03-13T10:15:48.130Z,1.60
2023-03-13T10:18:21.732Z,1.33
2023-03-13T10:20:49.712Z,1.80
2023-03-13T10:23:16.077Z,1.30
2023-03-13T10:25:42.461Z,1.50
2023-03-13T10:28:12.931Z,1.35
2023-03-13T10:30:43.508Z,1.15
2023-03-13T10:33:12.612Z,1.40
2023-03-13T10:35:40.539Z,1.48
2023-03-13T10:38:18.543Z,1.05
2023-03-13T10:40:56.295Z,1.20
2023-03-13T10:43:22.742Z,1.20
2023-03-13T10:50:42.805Z,1.38
2023-03-13T10:53:31.609Z,1.40
2023-03-13T10:56:00.406Z,1.35
2023-03-13T10:58:34.240Z,1.33
2023-03-13T11:01:22.000Z,1.50
2023-03-13T11:03:49.617Z,1.42
2023-03-13T11:06:24.991Z,1.45
2023-03-13T11:08:58.544Z,1.33
2023-03-13T11:11:30.727Z,1.30
2023-03-13T11:14:17.395Z,1.48
2023-03-13T11:17:04.366Z,1.50
2023-03-13T11:20:09.459Z,1.40
2023-03-13T11:23:17.044Z,1.45
2023-03-13T11:25:49.352Z,1.10
2023-03-13T11:28:18.722Z,1.50
2023-03-13T11:30:49.088Z,1.20
2023-03-13T11:33:24.907Z,0.90
2023-03-13T11:36:01.449Z,1.55
2023-03-13T11:38:30.946Z,1.40
2023-03-13T11:41:06.590Z,1.40
2023-03-13T11:43:41.690Z,1.17
2023-03-13T11:46:08.534Z,1.48
2023-03-13T11:51:20.859Z,1.25
2023-03-13T11:53:56.665Z,1.08
2023-03-13T11:56:27.320Z,1.20
2023-03-13T11:59:19.747Z,1.20
2023-03-13T12:01:57.370Z,1.38
2023-03-13T12:04:56.066Z,1.40
2023-03-13T12:07:29.115Z,1.20
2023-03-13T12:09:58.787Z,1.20
2023-03-13T12:12:32.697Z,1.40
2023-03-13T12:15:00.366Z,1.30
2023-03-13T12:17:32.603Z,1.38
2023-03-13T12:20:02.169Z,1.40
2023-03-13T12:22:47.361Z,1.60
2023-03-13T12:25:24.649Z,1.17
2023-03-13T12:27:52.776Z,1.55
2023-03-13T12:30:19.172Z,1.55
2023-03-13T12:32:57.466Z,1.40
2023-03-13T12:35:26.184Z,1.60
2023-03-13T12:38:06.591Z,1.67
2023-03-13T12:40:34.890Z,2.08
2023-03-13T12:43:05.881Z,1.45
2023-03-13T12:45:33.185Z,1.48
2023-03-13T12:48:13.645Z,1.80
2023-03-13T12:50:52.112Z,1.58
2023-03-13T12:53:33.610Z,2.00
2023-03-13T12:56:02.887Z,1.60
2023-03-13T12:58:48.811Z,1.95
2023-03-13T13:01:35.531Z,1.77
2023-03-13T13:04:06.511Z,1.65
2023-03-13T13:06:51.553Z,2.15
2023-03-13T13:09:20.932Z,1.80
2023-03-13T13:11:48.229Z,1.60
2023-03-13T13:14:17.581Z,2.05
2023-03-13T13:16:45.128Z,1.58
2023-03-13T13:19:23.438Z,2.17
2023-03-13T13:22:08.685Z,1.70
2023-03-13T13:24:51.470Z,1.70
2023-03-13T13:27:32.913Z,1.60
2023-03-13T13:30:00.286Z,1.40
2023-03-13T13:32:43.748Z,2.10
2023-03-13T13:35:10.112Z,1.52
2023-03-13T13:37:36.463Z,1.70
2023-03-13T13:40:29.217Z,1.90
2023-03-13T13:42:56.772Z,2.40
2023-03-13T13:45:27.993Z,2.10
2023-03-13T13:48:13.081Z,2.38
2023-03-13T13:50:39.482Z,2.30
2023-03-13T13:53:41.192Z,2.22
2023-03-13T13:56:27.536Z,2.40
2023-03-13T13:59:05.579Z,2.97
2023-03-13T14:01:33.079Z,2.50
2023-03-13T14:04:05.781Z,2.88
2023-03-13T14:06:35.126Z,2.30
2023-03-13T14:09:14.771Z,3.00
2023-03-13T14:11:41.138Z,2.35
2023-03-13T14:14:18.663Z,2.65
2023-03-13T14:16:57.122Z,2.97
2023-03-13T14:19:26.403Z,2.97
2023-03-13T14:21:57.969Z,2.67
2023-03-13T14:24:24.338Z,2.90
2023-03-13T14:26:50.632Z,2.70
2023-03-13T14:29:17.716Z,2.47
2023-03-13T14:31:50.967Z,2.65
2023-03-13T14:34:17.586Z,2.60
2023-03-13T14:36:51.298Z,2.35
2023-03-13T14:39:35.456Z,3.10
2023-03-13T14:42:12.838Z,2.92
2023-03-13T14:44:41.462Z,2.85
2023-03-13T14:47:09.329Z,2.42
2023-03-13T14:49:36.504Z,2.58
2023-03-13T14:52:02.922Z,2.83
2023-03-13T14:54:34.482Z,2.63
2023-03-13T14:57:04.894Z,2.40
2023-03-13T14:59:31.512Z,3.25
2023-03-13T15:01:59.275Z,2.92
2023-03-13T15:04:44.334Z,2.92
2023-03-13T15:07:10.776Z,2.65
2023-03-13T15:09:41.412Z,2.53
2023-03-13T15:12:16.660Z,2.75
2023-03-13T15:14:47.023Z,2.95
2023-03-13T15:17:15.260Z,2.90
2023-03-13T15:19:42.304Z,2.67
2023-03-13T15:22:12.144Z,2.80
2023-03-13T15:24:38.646Z,2.33
2023-03-13T15:27:10.643Z,2.42
2023-03-13T15:29:36.932Z,2.78
2023-03-13T15:32:04.128Z,2.75
2023-03-13T15:34:33.842Z,2.55
2023-03-13T15:37:00.224Z,3.17
2023-03-13T15:41:55.958Z,2.70
2023-03-13T15:44:22.305Z,3.00
2023-03-13T15:46:48.616Z,3.20
2023-03-13T15:49:15.055Z,2.42
2023-03-13T15:56:37.768Z,2.40
2023-03-13T15:59:11.682Z,2.67
2023-03-13T16:01:38.288Z,2.35
2023-03-13T16:04:04.940Z,2.75
2023-03-13T16:06:31.411Z,2.97
2023-03-13T16:11:26.652Z,3.58
2023-03-13T16:13:53.347Z,2.17
2023-03-13T16:16:24.742Z,2.95
2023-03-13T16:18:52.316Z,3.28
2023-03-13T16:21:21.456Z,2.80
2023-03-13T16:23:48.026Z,3.28
2023-03-13T16:26:16.104Z,3.15
2023-03-13T16:28:42.577Z,3.15
2023-03-13T16:36:01.564Z,2.22
2023-03-13T16:38:27.888Z,3.28
2023-03-13T16:40:54.233Z,3.13
2023-03-13T16:43:20.567Z,2.78
2023-03-13T16:45:47.779Z,3.15
2023-03-13T16:48:16.542Z,3.10
2023-03-13T16:50:46.454Z,3.25
2023-03-13T16:53:12.814Z,3.03
2023-03-13T16:55:39.171Z,3.05
2023-03-13T16:58:05.558Z,3.10
2023-03-13T17:00:31.964Z,2.80
2023-03-13T17:02:58.495Z,3.35
2023-03-13T17:05:25.529Z,3.42
2023-03-13T17:07:52.062Z,3.70
2023-03-13T17:12:45.092Z,3.40
2023-03-13T17:17:38.063Z,3.88
2023-03-13T17:20:05.751Z,3.72
2023-03-13T17:22:32.104Z,3.60
2023-03-13T17:24:58.400Z,3.70
2023-03-13T17:27:24.710Z,3.50
2023-03-13T17:29:51.124Z,3.72
2023-03-13T17:32:17.774Z,4.13
2023-03-13T17:37:13.755Z,3.90
2023-03-13T17:39:40.116Z,4.05
2023-03-13T17:42:06.505Z,4.22
2023-03-13T17:44:33.224Z,4.10
2023-03-13T17:46:59.702Z,3.90
2023-03-13T17:49:26.262Z,4.35
2023-03-13T17:51:52.631Z,4.88
2023-03-13T17:54:19.120Z,4.05
2023-03-13T17:56:45.704Z,4.03
2023-03-13T17:59:16.700Z,3.15
2023-03-13T18:01:43.428Z,5.40
2023-03-13T18:04:10.898Z,4.25
2023-03-13T18:06:42.838Z,4.55
2023-03-13T18:09:13.610Z,3.80
2023-03-13T18:11:40.073Z,3.58
2023-03-13T18:14:07.157Z,4.20
2023-03-13T18:16:38.234Z,4.57
2023-03-13T18:19:05.453Z,4.25
2023-03-13T18:21:32.386Z,3.78
2023-03-13T18:23:58.884Z,4.25
2023-03-13T18:28:52.446Z,4.00
2023-03-13T18:31:18.833Z,4.43
2023-03-13T18:33:46.278Z,3.80
2023-03-13T18:36:16.028Z,3.97
2023-03-13T18:38:42.579Z,4.38
2023-03-13T18:43:36.443Z,4.57
2023-03-13T18:46:02.793Z,5.35
2023-03-13T18:48:29.270Z,4.20
2023-03-13T18:50:55.662Z,4.22
2023-03-13T18:53:22.049Z,4.22
2023-03-13T18:55:48.440Z,4.22
2023-03-13T18:58:14.844Z,4.22
2023-03-13T19:00:41.493Z,4.32
2023-03-13T19:03:08.022Z,4.05
2023-03-13T19:05:34.351Z,4.40
2023-03-13T19:08:00.664Z,4.40
2023-03-13T19:10:28.674Z,3.97
2023-03-13T19:12:55.649Z,4.13
2023-03-13T19:15:24.467Z,4.15
2023-03-13T19:17:51.545Z,5.53
2023-03-13T19:20:20.111Z,4.57
2023-03-13T19:22:47.080Z,4.18
2023-03-13T19:25:16.289Z,3.78
2023-03-13T19:27:43.173Z,4.25
2023-03-13T19:30:19.651Z,4.65
2023-03-13T19:32:46.157Z,4.25
2023-03-13T19:35:12.774Z,4.80
2023-03-13T19:37:39.784Z,4.32
2023-03-13T19:40:07.620Z,4.70
2023-03-13T19:42:35.264Z,4.07
2023-03-13T19:45:01.722Z,4.32
2023-03-13T19:47:28.114Z,3.88
2023-03-13T19:49:54.553Z,3.85
2023-03-13T19:52:20.941Z,4.28
2023-03-13T19:54:49.743Z,4.22
2023-03-13T19:57:16.115Z,4.68
2023-03-13T19:59:42.468Z,4.88
2023-03-13T20:02:09.612Z,4.15
2023-03-13T20:04:36.139Z,4.55
2023-03-13T20:07:03.425Z,4.95
2023-03-13T20:09:29.900Z,4.53
2023-03-13T20:11:56.289Z,4.45
2023-03-13T20:14:22.684Z,5.82
2023-03-13T20:16:49.238Z,4.88
2023-03-13T20:19:15.788Z,4.63
2023-03-13T20:21:42.847Z,4.88
2023-03-13T20:24:09.883Z,5.13
2023-03-13T20:26:36.268Z,4.75
2023-03-13T20:29:02.610Z,4.53
2023-03-13T20:31:30.689Z,4.03
2023-03-13T20:33:57.747Z,4.60
2023-03-13T20:36:24.532Z,4.40
2023-03-13T20:38:51.384Z,4.20
2023-03-13T20:41:20.976Z,5.07
2023-03-13T20:43:47.296Z,4.95
2023-03-13T20:46:13.685Z,3.90
2023-03-13T20:48:41.498Z,4.32
2023-03-13T20:51:08.637Z,5.30
2023-03-13T20:53:38.857Z,6.55
2023-03-13T20:56:06.985Z,5.55
2023-03-13T20:58:34.096Z,5.03
2023-03-13T21:01:01.242Z,5.13
2023-03-13T21:03:27.688Z,4.35
2023-03-13T21:05:54.039Z,5.22
2023-03-13T21:08:20.671Z,4.53
2023-03-13T21:13:13.291Z,3.97
2023-03-13T21:15:40.593Z,3.85
2023-03-13T21:18:06.994Z,4.30
2023-03-13T21:20:33.366Z,4.53
2023-03-13T21:22:59.738Z,3.85
2023-03-13T21:25:26.090Z,3.97
2023-03-13T21:27:52.571Z,3.83
2023-03-13T21:30:19.940Z,3.97
2023-03-13T21:32:47.016Z,3.92
2023-03-13T21:35:14.140Z,3.40
2023-03-13T21:37:41.046Z,4.40
2023-03-13T21:40:08.840Z,3.65
2023-03-13T21:42:36.091Z,3.88
2023-03-13T21:45:03.490Z,4.30
2023-03-13T21:47:31.505Z,3.35
2023-03-13T21:50:00.542Z,4.00
2023-03-13T21:52:27.949Z,4.40
2023-03-13T21:54:54.362Z,3.95
2023-03-13T21:57:20.775Z,3.95
2023-03-13T21:59:47.240Z,3.78
2023-03-13T22:02:13.615Z,3.63
2023-03-13T22:04:40.232Z,3.28
2023-03-13T22:07:06.635Z,3.85
2023-03-13T22:09:33.203Z,3.30
2023-03-13T22:11:59.719Z,3.40
2023-03-13T22:14:27.944Z,4.45
2023-03-13T22:16:54.572Z,3.90
2023-03-13T22:21:47.216Z,3.88
2023-03-13T22:24:13.562Z,3.50
2023-03-13T22:26:39.901Z,3.72
2023-03-13T22:29:06.342Z,3.28
2023-03-13T22:31:32.720Z,4.07
2023-03-13T22:33:59.144Z,4.18
2023-03-13T22:36:25.585Z,4.18
2023-03-13T22:38:52.062Z,3.75
2023-03-13T22:41:18.694Z,3.60
2023-03-13T22:46:11.417Z,3.38
2023-03-13T22:48:37.888Z,3.83
2023-03-13T22:51:08.558Z,3.83
2023-03-13T22:53:36.444Z,3.20
2023-03-13T22:56:03.482Z,3.40
2023-03-13T22:58:29.871Z,3.88
2023-03-13T23:00:56.754Z,4.95
2023-03-13T23:03:23.216Z,4.18
2023-03-13T23:05:49.625Z,4.30
2023-03-13T23:08:16.341Z,4.25
2023-03-13T23:13:09.150Z,3.45
2023-03-13T23:15:54.655Z,3.95
2023-03-13T23:18:21.840Z,2.90
2023-03-13T23:20:48.198Z,3.10
2023-03-13T23:23:14.538Z,3.60
2023-03-13T23:25:40.882Z,3.35
2023-03-13T23:28:07.338Z,3.30
2023-03-13T23:30:33.735Z,3.60
2023-03-13T23:33:00.209Z,3.42
2023-03-13T23:35:26.529Z,3.53
2023-03-13T23:37:55.805Z,3.45
2023-03-13T23:40:22.645Z,2.92
2023-03-13T23:42:52.437Z,2.90
2023-03-13T23:45:19.218Z,3.00
2023-03-13T23:47:46.014Z,2.97
2023-03-13T23:50:13.641Z,3.40
2023-03-13T23:52:40.425Z,3.33
2023-03-13T23:55:07.457Z,3.50
2023-03-13T23:57:33.930Z,3.33
